• Join FlightAware (Why Join?)
  • Login
  • US Flag 
12:08AM EDT


 

Airport Tracker/Info


-or-


 

Live Flight TrackerFlight Track Log ✈ N1318Q ✈ 10-Jul-2013 ✈ KLRP - KMTN

Flight Track Log - Related Links

Times and Time Zones

All times are in EDT time to prevent confusion due to time zone crossing. See the N1318Q flight status page for this flight to view local times or setup timezone preferences in your user account.

Time Position Orientation Groundspeed Altitude Reporting Facility
EDT Latitude Longitude Course Direction KTS MPH feet Rate Location/Type
11:55PM 40.0000 -76.2667 51° Northeast 100 115 3,100  Level Potomac TRACON
11:56PM 39.9667 -76.2667 180° South 96 110 3,000 -60 Descending Potomac TRACON
11:56PM 39.9500 -76.2833 217° Southwest 89 102 3,000  Level Potomac TRACON
11:57PM 39.9333 -76.2833 180° South 94 108 3,100  Climbing Potomac TRACON
11:58PM -19.8881 -160.1615 126° Southeast  Level Estimated
11:59PM -19.8682 -160.1356 51° Northeast  Level Estimated
11:59PM 39.9000 -76.3000 201° Southwest 98 113 3,000  Level Potomac TRACON
12:00AM -19.8484 -160.1097 51° Northeast  Level Estimated
12:00AM 39.8667 -76.3000 180° South 89 102 3,000  Level Potomac TRACON
12:01AM 39.8500 -76.3167 218° Southwest 90 104 2,900  Descending Potomac TRACON
12:02AM 39.8333 -76.3333 218° Southwest 84 97 3,100 120 Climbing Potomac TRACON
12:02AM 39.8000 -76.3333 180° South 88 101 3,200 -60 Climbing Potomac TRACON
12:03AM 39.7833 -76.3333 180° South 111 128 3,000 -60 Descending Potomac TRACON
12:04AM 39.7500 -76.3333 180° South 91 105 3,100  Climbing Potomac TRACON
12:05AM 39.7333 -76.3333 180° South 91 105 3,100  Level Potomac TRACON
12:06AM 39.7000 -76.3500 201° Southwest 88 101 3,100  Level Potomac TRACON
12:07AM 39.6833 -76.3500 180° South 97 112 3,100  Level Potomac TRACON
12:08AM 39.6500 -76.3500 180° South 100 115 3,100  Level Potomac TRACON
12:09AM 39.6167 -76.3500 180° South 99 114 3,100 -60 Level Potomac TRACON
12:10AM 39.6000 -76.3500 180° South 98 113 3,000 -60 Descending Potomac TRACON
12:12AM 39.5667 -76.3667 201° Southwest 97 112 3,000  Level Potomac TRACON
12:12AM 39.5500 -76.3667 180° South 97 112 3,000  Level Potomac TRACON
12:13AM 39.5167 -76.3833 201° Southwest 90 104 3,100 60 Climbing Potomac TRACON
12:15AM 39.4894 -76.3833 180° South  Level FlightAware Approximate